createdAt,value
2022-12-13T00:02:02.094Z,7.07
2022-12-13T00:05:04.412Z,6.65
2022-12-13T00:08:06.458Z,6.50
2022-12-13T00:11:12.004Z,6.22
2022-12-13T00:14:14.158Z,5.53
2022-12-13T00:17:17.831Z,6.63
2022-12-13T00:20:20.058Z,6.72
2022-12-13T00:23:21.983Z,7.68
2022-12-13T00:26:26.365Z,7.68
2022-12-13T00:29:28.516Z,7.80
2022-12-13T00:32:31.900Z,7.20
2022-12-13T00:35:34.403Z,7.15
2022-12-13T00:38:37.085Z,6.25
2022-12-13T00:41:39.126Z,6.53
2022-12-13T00:44:41.190Z,6.32
2022-12-13T00:47:45.798Z,6.25
2022-12-13T00:50:47.760Z,5.85
2022-12-13T00:53:50.141Z,5.80
2022-12-13T00:56:52.046Z,6.20
2022-12-13T00:59:53.964Z,6.05
2022-12-13T01:02:57.284Z,5.65
2022-12-13T01:06:16.259Z,6.07
2022-12-13T01:09:20.498Z,7.18
2022-12-13T01:12:22.488Z,7.28
2022-12-13T01:15:24.422Z,7.22
2022-12-13T01:18:27.724Z,9.82
2022-12-13T01:21:29.866Z,8.00
2022-12-13T01:24:32.512Z,6.55
2022-12-13T01:27:34.432Z,7.95
2022-12-13T01:30:36.636Z,9.00
2022-12-13T01:33:40.515Z,7.55
2022-12-13T01:36:44.405Z,9.10
2022-12-13T01:39:46.398Z,6.72
2022-12-13T01:42:48.342Z,6.03
2022-12-13T01:45:50.377Z,7.88
2022-12-13T01:49:01.660Z,7.47
2022-12-13T01:52:08.147Z,6.68
2022-12-13T01:55:12.110Z,6.28
2022-12-13T01:58:15.070Z,6.78
2022-12-13T02:01:18.028Z,7.90
2022-12-13T02:04:29.177Z,9.63
2022-12-13T02:07:33.974Z,8.93
2022-12-13T02:10:36.311Z,8.45
2022-12-13T02:13:40.861Z,8.07
2022-12-13T02:16:53.476Z,8.60
2022-12-13T02:20:30.827Z,7.90
2022-12-13T02:24:12.427Z,9.30
2022-12-13T02:27:31.164Z,8.38
2022-12-13T02:30:39.606Z,7.65
2022-12-13T02:33:52.921Z,4.90
2022-12-13T02:37:01.927Z,8.07
2022-12-13T02:40:08.980Z,7.45
2022-12-13T02:43:16.796Z,9.18
2022-12-13T02:46:29.155Z,9.57
2022-12-13T02:49:35.044Z,10.18
2022-12-13T02:52:39.464Z,10.02
2022-12-13T02:55:41.407Z,9.73
2022-12-13T02:58:47.581Z,9.52
2022-12-13T03:02:10.496Z,11.80
2022-12-13T03:05:24.018Z,12.23
2022-12-13T03:08:31.526Z,11.93
2022-12-13T03:11:45.251Z,11.40
2022-12-13T03:14:56.542Z,11.32
2022-12-13T03:18:03.845Z,11.40
2022-12-13T03:21:07.884Z,11.15
2022-12-13T03:24:09.975Z,10.40
2022-12-13T03:27:12.422Z,9.35
2022-12-13T03:30:14.412Z,9.23
2022-12-13T03:33:17.786Z,8.70
2022-12-13T03:36:20.116Z,8.23
2022-12-13T03:39:24.111Z,8.30
2022-12-13T03:42:26.239Z,8.23
2022-12-13T03:45:28.616Z,7.30
2022-12-13T03:48:31.993Z,7.47
2022-12-13T03:51:33.978Z,6.97
2022-12-13T03:54:36.493Z,6.43
2022-12-13T03:57:38.461Z,7.00
2022-12-13T04:00:40.496Z,6.80
2022-12-13T04:03:45.845Z,6.32
2022-12-13T04:06:47.844Z,6.75
2022-12-13T04:09:49.813Z,6.88
2022-12-13T04:12:52.007Z,6.63
2022-12-13T04:15:54.038Z,7.20
2022-12-13T04:18:57.352Z,5.90
2022-12-13T04:21:59.361Z,5.93
2022-12-13T04:25:01.361Z,5.22
2022-12-13T04:28:03.392Z,5.75
2022-12-13T04:31:05.670Z,5.75
2022-12-13T04:34:09.105Z,5.65
2022-12-13T04:37:11.063Z,5.90
2022-12-13T04:40:12.994Z,6.10
2022-12-13T04:43:23.820Z,6.18
2022-12-13T04:46:25.769Z,6.43
2022-12-13T04:49:29.165Z,7.00
2022-12-13T04:52:31.492Z,9.13
2022-12-13T04:55:33.466Z,9.38
2022-12-13T04:58:35.558Z,9.43
2022-12-13T05:01:37.708Z,11.60
2022-12-13T05:04:41.036Z,11.25
2022-12-13T05:07:43.180Z,11.07
2022-12-13T05:10:45.293Z,10.98
2022-12-13T05:13:47.573Z,10.73
2022-12-13T05:16:49.584Z,12.18
2022-12-13T05:19:52.923Z,13.80
2022-12-13T05:22:56.095Z,15.07
2022-12-13T05:25:58.086Z,13.18
2022-12-13T05:29:00.327Z,14.95
2022-12-13T05:32:02.916Z,14.23
2022-12-13T05:35:07.405Z,14.45
2022-12-13T05:38:09.359Z,13.68
2022-12-13T05:41:16.334Z,12.05
2022-12-13T05:44:18.295Z,11.82
2022-12-13T05:47:20.281Z,11.60
2022-12-13T05:50:24.100Z,11.50
2022-12-13T05:53:30.551Z,12.95
2022-12-13T05:56:34.969Z,11.05
2022-12-13T05:59:36.872Z,15.82
2022-12-13T06:02:39.551Z,12.13
2022-12-13T06:05:43.420Z,10.82
2022-12-13T06:08:45.336Z,9.73
2022-12-13T06:11:47.649Z,10.48
2022-12-13T06:14:49.517Z,10.90
2022-12-13T06:17:51.471Z,12.15
2022-12-13T06:20:58.504Z,11.15
2022-12-13T06:24:01.943Z,10.63
2022-12-13T06:27:04.159Z,10.88
2022-12-13T06:30:06.862Z,11.30
2022-12-13T06:33:09.049Z,11.23
2022-12-13T06:36:16.638Z,10.73
2022-12-13T06:39:19.092Z,11.05
2022-12-13T06:42:21.761Z,11.18
2022-12-13T06:45:25.122Z,11.73
2022-12-13T06:48:27.126Z,12.65
2022-12-13T06:51:32.690Z,10.35
2022-12-13T06:54:35.280Z,8.68
2022-12-13T06:57:37.224Z,6.72
2022-12-13T07:00:48.324Z,7.32
2022-12-13T07:03:51.416Z,8.07
2022-12-13T07:06:54.763Z,8.10
2022-12-13T07:09:56.894Z,8.20
2022-12-13T07:12:58.882Z,8.48
2022-12-13T07:16:01.352Z,8.93
2022-12-13T07:19:03.629Z,8.57
2022-12-13T07:22:06.988Z,8.45
2022-12-13T07:25:28.053Z,9.07
2022-12-13T07:28:33.313Z,9.13
2022-12-13T07:31:35.793Z,8.57
2022-12-13T07:34:37.924Z,8.98
2022-12-13T07:37:41.252Z,7.63
2022-12-13T07:40:43.304Z,7.40
2022-12-13T07:43:45.369Z,8.20
2022-12-13T07:46:48.768Z,7.78
2022-12-13T07:49:50.767Z,7.80
2022-12-13T07:52:54.531Z,7.43
2022-12-13T07:55:56.428Z,7.65
2022-12-13T07:58:58.382Z,8.52
2022-12-13T08:02:01.771Z,9.00
2022-12-13T08:05:25.900Z,8.57
2022-12-13T08:08:31.327Z,8.35
2022-12-13T08:11:34.005Z,9.35
2022-12-13T08:14:35.920Z,10.88
2022-12-13T08:17:37.913Z,8.85
2022-12-13T08:20:39.782Z,8.05
2022-12-13T08:23:43.120Z,8.00
2022-12-13T08:26:45.445Z,10.00
2022-12-13T08:29:47.476Z,8.38
2022-12-13T08:32:50.408Z,9.05
2022-12-13T08:35:52.319Z,9.25
2022-12-13T08:38:57.166Z,7.43
2022-12-13T08:41:59.088Z,8.20
2022-12-13T08:45:17.525Z,7.63
2022-12-13T08:48:19.901Z,7.40
2022-12-13T08:51:25.711Z,7.32
2022-12-13T08:54:33.059Z,7.85
2022-12-13T08:57:35.832Z,6.65
2022-12-13T09:00:38.339Z,6.40
2022-12-13T09:03:40.586Z,5.05
2022-12-13T09:06:43.201Z,5.05
2022-12-13T09:09:46.470Z,4.20
2022-12-13T09:13:01.507Z,5.13
2022-12-13T09:16:05.518Z,4.55
2022-12-13T09:19:26.250Z,4.25
2022-12-13T09:22:33.527Z,4.45
2022-12-13T09:25:37.838Z,4.47
2022-12-13T09:28:41.104Z,4.78
2022-12-13T09:31:47.078Z,4.32
2022-12-13T09:34:53.012Z,4.85
2022-12-13T09:37:55.676Z,5.20
2022-12-13T09:41:03.106Z,4.97
2022-12-13T09:44:32.187Z,5.85
2022-12-13T09:47:39.179Z,5.60
2022-12-13T09:50:58.308Z,5.38
2022-12-13T09:54:18.296Z,5.70
2022-12-13T09:57:32.333Z,5.85
2022-12-13T10:00:36.732Z,6.18
2022-12-13T10:03:41.575Z,6.43
2022-12-13T10:06:43.555Z,5.80
2022-12-13T10:09:46.370Z,6.43
2022-12-13T10:12:55.153Z,6.15
2022-12-13T10:19:29.251Z,7.40
2022-12-13T10:22:32.056Z,6.03
2022-12-13T10:25:47.298Z,6.63
2022-12-13T10:29:04.392Z,7.18
2022-12-13T10:32:12.545Z,6.43
2022-12-13T10:35:24.649Z,6.60
2022-12-13T10:38:32.026Z,6.60
2022-12-13T10:41:36.471Z,6.78
2022-12-13T10:44:39.751Z,6.97
2022-12-13T10:47:43.094Z,7.35
2022-12-13T10:50:56.994Z,6.70
2022-12-13T10:54:00.806Z,6.97
2022-12-13T10:57:02.928Z,6.97
2022-12-13T11:00:31.041Z,7.35
2022-12-13T11:03:34.830Z,6.68
2022-12-13T11:06:43.576Z,6.93
2022-12-13T11:09:45.734Z,6.90
2022-12-13T11:13:00.680Z,7.22
2022-12-13T11:16:05.356Z,6.30
2022-12-13T11:19:16.927Z,6.88
2022-12-13T11:22:21.743Z,7.20
2022-12-13T11:25:27.106Z,6.85
2022-12-13T11:28:55.885Z,7.43
2022-12-13T11:32:08.489Z,7.35
2022-12-13T11:35:17.542Z,6.22
2022-12-13T11:38:28.366Z,7.25
2022-12-13T11:41:35.131Z,6.88
2022-12-13T11:44:47.857Z,6.88
2022-12-13T11:47:59.779Z,7.18
2022-12-13T11:51:02.344Z,7.32
2022-12-13T11:54:11.038Z,7.65
2022-12-13T12:00:35.055Z,7.35
2022-12-13T12:03:44.045Z,8.50
2022-12-13T12:06:51.169Z,7.47
2022-12-13T12:09:57.477Z,7.82
2022-12-13T12:13:07.540Z,7.28
2022-12-13T12:16:18.743Z,8.05
2022-12-13T12:19:24.645Z,7.68
2022-12-13T12:22:39.883Z,7.78
2022-12-13T12:25:51.544Z,7.53
2022-12-13T12:29:12.160Z,8.10
2022-12-13T12:32:26.147Z,7.50
2022-12-13T12:35:45.894Z,7.57
2022-12-13T12:39:26.353Z,7.80
2022-12-13T12:43:13.914Z,8.13
2022-12-13T12:46:27.287Z,8.00
2022-12-13T12:50:19.826Z,8.38
2022-12-13T12:53:33.462Z,7.47
2022-12-13T12:56:42.307Z,7.70
2022-12-13T13:03:01.806Z,7.68
2022-12-13T13:06:09.580Z,8.18
2022-12-13T13:09:17.398Z,8.02
2022-12-13T13:12:29.605Z,8.13
2022-12-13T13:15:54.269Z,7.97
2022-12-13T13:18:57.209Z,8.13
2022-12-13T13:22:01.601Z,8.93
2022-12-13T13:25:31.505Z,9.32
2022-12-13T13:28:33.712Z,8.13
2022-12-13T13:32:00.932Z,7.80
2022-12-13T13:35:49.301Z,7.82
2022-12-13T13:38:52.755Z,8.68
2022-12-13T13:42:08.028Z,8.45
2022-12-13T13:45:21.274Z,8.10
2022-12-13T13:48:37.347Z,8.75
2022-12-13T13:55:48.791Z,10.50
2022-12-13T13:59:29.610Z,9.07
2022-12-13T14:03:32.877Z,8.27
2022-12-13T14:07:15.555Z,9.43
2022-12-13T14:10:28.600Z,9.32
2022-12-13T14:14:21.635Z,8.77
2022-12-13T14:18:01.926Z,9.10
2022-12-13T14:21:13.101Z,9.15
2022-12-13T14:24:22.331Z,8.30
2022-12-13T14:27:39.352Z,9.18
2022-12-13T14:30:48.283Z,9.77
2022-12-13T14:34:01.520Z,9.40
2022-12-13T14:37:06.291Z,9.10
2022-12-13T14:40:26.083Z,10.15
2022-12-13T14:43:30.298Z,9.90
2022-12-13T14:46:32.669Z,9.55
2022-12-13T14:49:39.041Z,9.13
2022-12-13T14:52:43.562Z,9.25
2022-12-13T14:56:03.693Z,9.75
2022-12-13T14:59:13.309Z,10.35
2022-12-13T15:02:17.414Z,9.32
2022-12-13T15:05:35.532Z,10.60
2022-12-13T15:08:38.809Z,9.10
2022-12-13T15:11:41.795Z,9.38
2022-12-13T15:14:48.220Z,10.07
2022-12-13T15:18:05.760Z,9.32
2022-12-13T15:21:21.185Z,9.65
2022-12-13T15:24:28.232Z,9.82
2022-12-13T15:27:30.497Z,9.95
2022-12-13T15:30:35.483Z,10.65
2022-12-13T15:33:44.083Z,9.48
2022-12-13T15:36:51.183Z,9.25
2022-12-13T15:39:57.521Z,9.13
2022-12-13T15:42:59.555Z,9.32
2022-12-13T15:46:02.111Z,10.60
2022-12-13T15:49:06.201Z,9.38
2022-12-13T15:52:25.504Z,9.13
2022-12-13T15:55:33.694Z,9.82
2022-12-13T15:58:37.326Z,9.80
2022-12-13T16:01:39.338Z,9.50
2022-12-13T16:04:41.411Z,9.25
2022-12-13T16:07:43.533Z,9.90
2022-12-13T16:10:48.562Z,9.52
2022-12-13T16:13:50.481Z,10.25
2022-12-13T16:17:08.533Z,9.50
2022-12-13T16:20:14.157Z,10.02
2022-12-13T16:23:26.837Z,10.32
2022-12-13T16:26:30.962Z,10.18
2022-12-13T16:29:33.314Z,10.57
2022-12-13T16:32:49.609Z,10.20
2022-12-13T16:35:57.268Z,10.55
2022-12-13T16:38:59.160Z,10.85
2022-12-13T16:42:03.128Z,9.80
2022-12-13T16:45:40.102Z,11.18
2022-12-13T16:48:28.859Z,10.60
2022-12-13T16:51:31.229Z,9.45
2022-12-13T16:54:33.592Z,9.95
2022-12-13T16:57:37.807Z,10.57
2022-12-13T17:00:41.141Z,10.57
2022-12-13T17:03:43.404Z,11.93
2022-12-13T17:06:46.470Z,10.73
2022-12-13T17:09:48.710Z,10.77
2022-12-13T17:12:53.478Z,11.15
2022-12-13T17:15:58.971Z,12.57
2022-12-13T17:19:02.183Z,11.65
2022-12-13T17:22:04.463Z,11.07
2022-12-13T17:25:08.035Z,11.57
2022-12-13T17:28:13.183Z,10.95
2022-12-13T17:31:16.936Z,12.00
2022-12-13T17:34:19.829Z,11.02
2022-12-13T17:37:23.014Z,11.15
2022-12-13T17:40:25.791Z,11.90
2022-12-13T17:43:34.363Z,11.20
2022-12-13T17:46:37.967Z,12.55
2022-12-13T17:49:40.627Z,11.63
2022-12-13T17:52:42.885Z,11.90
2022-12-13T17:55:45.161Z,12.95
2022-12-13T17:58:48.621Z,11.60
2022-12-13T18:01:51.623Z,12.05
2022-12-13T18:04:54.099Z,11.45
2022-12-13T18:07:56.537Z,11.93
2022-12-13T18:11:30.778Z,11.77
2022-12-13T18:14:23.169Z,12.25
2022-12-13T18:17:46.759Z,12.75
2022-12-13T18:20:49.253Z,12.52
2022-12-13T18:23:54.972Z,12.25
2022-12-13T18:26:59.109Z,13.07
2022-12-13T18:30:03.260Z,11.82
2022-12-13T18:33:08.645Z,12.27
2022-12-13T18:36:11.579Z,11.73
2022-12-13T18:39:15.385Z,12.82
2022-12-13T18:42:18.744Z,12.20
2022-12-13T18:45:23.663Z,12.35
2022-12-13T18:48:32.705Z,12.65
2022-12-13T18:51:36.854Z,10.10
2022-12-13T18:54:39.966Z,12.80
2022-12-13T18:57:42.733Z,13.82
2022-12-13T19:00:46.668Z,13.57
2022-12-13T19:03:50.595Z,14.98
2022-12-13T19:07:01.123Z,14.45
2022-12-13T19:10:03.792Z,13.43
2022-12-13T19:13:06.267Z,14.38
2022-12-13T19:16:12.906Z,14.40
2022-12-13T19:19:15.771Z,14.07
2022-12-13T19:22:18.528Z,14.48
2022-12-13T19:25:21.730Z,14.80
2022-12-13T19:28:24.420Z,14.15
2022-12-13T19:31:32.685Z,15.27
2022-12-13T19:34:36.777Z,15.70
2022-12-13T19:37:40.498Z,15.23
2022-12-13T19:40:43.866Z,14.88
2022-12-13T19:43:52.451Z,14.82
2022-12-13T19:46:57.943Z,15.48
2022-12-13T19:50:01.450Z,14.63
2022-12-13T19:53:05.345Z,15.23
2022-12-13T19:56:10.328Z,15.07
2022-12-13T19:59:14.217Z,15.20
2022-12-13T20:02:20.741Z,15.10
2022-12-13T20:05:27.182Z,15.85
2022-12-13T20:08:31.372Z,14.88
2022-12-13T20:11:34.325Z,15.20
2022-12-13T20:14:37.572Z,15.20
2022-12-13T20:17:42.762Z,15.50
2022-12-13T20:21:10.543Z,14.55
2022-12-13T20:24:12.501Z,15.85
2022-12-13T20:27:15.120Z,15.63
2022-12-13T20:30:19.086Z,15.55
2022-12-13T20:33:23.919Z,16.17
2022-12-13T20:36:28.437Z,15.23
2022-12-13T20:39:32.778Z,15.40
2022-12-13T20:42:35.717Z,14.73
2022-12-13T20:45:38.992Z,15.35
2022-12-13T20:48:45.845Z,16.00
2022-12-13T20:51:52.031Z,14.65
2022-12-13T20:54:55.087Z,14.65
2022-12-13T20:57:57.610Z,15.05
2022-12-13T21:01:02.764Z,14.88
2022-12-13T21:04:09.053Z,15.00
2022-12-13T21:07:11.260Z,15.65
2022-12-13T21:10:15.774Z,16.08
2022-12-13T21:13:18.112Z,14.77
2022-12-13T21:16:21.565Z,16.25
2022-12-13T21:19:26.791Z,15.43
2022-12-13T21:22:28.693Z,14.82
2022-12-13T21:25:30.995Z,14.85
2022-12-13T21:28:33.171Z,14.50
2022-12-13T21:31:36.622Z,13.73
2022-12-13T21:34:40.276Z,13.90
2022-12-13T21:37:42.303Z,16.35
2022-12-13T21:40:50.621Z,15.98
2022-12-13T21:43:52.830Z,15.48
2022-12-13T21:50:18.103Z,15.73
2022-12-13T21:53:19.987Z,16.17
2022-12-13T21:56:24.092Z,15.52
2022-12-13T21:59:27.742Z,15.88
2022-12-13T22:02:29.644Z,16.10
2022-12-13T22:05:33.193Z,16.40
2022-12-13T22:08:35.076Z,14.93
2022-12-13T22:11:37.158Z,15.80
2022-12-13T22:14:39.044Z,15.98
2022-12-13T22:17:41.539Z,16.40
2022-12-13T22:20:44.859Z,15.73
2022-12-13T22:23:47.089Z,16.20
2022-12-13T22:26:48.957Z,15.65
2022-12-13T22:29:51.412Z,16.08
2022-12-13T22:32:53.356Z,15.85
2022-12-13T22:35:56.575Z,16.42
2022-12-13T22:38:58.484Z,15.70
2022-12-13T22:42:00.376Z,16.30
2022-12-13T22:45:02.456Z,15.75
2022-12-13T22:48:04.916Z,16.20
2022-12-13T22:51:10.339Z,16.35
2022-12-13T22:54:12.177Z,15.80
2022-12-13T22:57:14.175Z,15.93
2022-12-13T23:00:16.448Z,17.23
2022-12-13T23:03:18.369Z,16.80
2022-12-13T23:06:23.728Z,16.65
2022-12-13T23:09:25.617Z,16.98
2022-12-13T23:12:27.656Z,16.77
2022-12-13T23:15:30.031Z,15.80
2022-12-13T23:18:31.910Z,16.05
2022-12-13T23:21:35.160Z,17.52
2022-12-13T23:24:37.123Z,18.17
2022-12-13T23:27:38.991Z,17.13
2022-12-13T23:30:40.895Z,17.20
2022-12-13T23:33:43.070Z,17.95
2022-12-13T23:36:46.374Z,16.80
2022-12-13T23:39:48.315Z,17.88
2022-12-13T23:42:50.229Z,15.77
2022-12-13T23:45:52.266Z,16.45
2022-12-13T23:48:54.121Z,17.33
2022-12-13T23:51:57.414Z,16.67
2022-12-13T23:54:59.263Z,16.35
2022-12-13T23:58:01.143Z,17.23
